createdAt,value
2022-08-17T00:00:10.223Z,26.79
2022-08-17T00:03:17.158Z,26.78
2022-08-17T00:05:52.315Z,26.76
2022-08-17T00:08:24.339Z,26.75
2022-08-17T00:10:53.953Z,26.75
2022-08-17T00:13:43.060Z,26.73
2022-08-17T00:16:51.001Z,26.67
2022-08-17T00:19:26.310Z,26.64
2022-08-17T00:22:29.766Z,26.62
2022-08-17T00:24:45.037Z,26.58
2022-08-17T00:27:12.010Z,26.54
2022-08-17T00:29:38.972Z,26.52
2022-08-17T00:33:15.012Z,26.52
2022-08-17T00:34:53.665Z,26.52
2022-08-17T00:37:21.046Z,26.52
2022-08-17T00:39:48.276Z,26.50
2022-08-17T00:42:18.332Z,26.44
2022-08-17T00:44:46.441Z,26.43
2022-08-17T00:47:13.605Z,26.42
2022-08-17T00:49:40.677Z,26.44
2022-08-17T00:52:16.716Z,26.44
2022-08-17T00:54:47.575Z,26.45
2022-08-17T00:57:31.735Z,26.42
2022-08-17T01:00:26.930Z,26.43
2022-08-17T01:03:00.829Z,26.39
2022-08-17T01:05:32.742Z,26.34
2022-08-17T01:08:02.667Z,26.32
2022-08-17T01:10:58.481Z,26.29
2022-08-17T01:13:30.374Z,26.26
2022-08-17T01:16:05.263Z,26.28
2022-08-17T01:18:33.887Z,26.27
2022-08-17T01:21:09.284Z,26.24
2022-08-17T01:23:37.204Z,26.24
2022-08-17T01:26:06.309Z,26.22
2022-08-17T01:28:53.699Z,26.20
2022-08-17T01:31:25.435Z,26.19
2022-08-17T01:33:53.356Z,26.18
2022-08-17T01:36:21.019Z,26.16
2022-08-17T01:38:48.552Z,26.10
2022-08-17T01:41:16.856Z,26.08
2022-08-17T01:43:51.843Z,26.06
2022-08-17T01:46:27.472Z,26.04
2022-08-17T01:48:57.624Z,26.03
2022-08-17T01:51:32.161Z,26.02
2022-08-17T01:54:05.300Z,26.00
2022-08-17T01:56:35.709Z,25.94
2022-08-17T01:59:03.696Z,25.94
2022-08-17T02:01:34.617Z,25.94
2022-08-17T02:04:02.320Z,25.95
2022-08-17T02:06:53.745Z,25.95
2022-08-17T02:09:26.329Z,25.90
2022-08-17T02:12:37.383Z,25.87
2022-08-17T02:14:47.415Z,25.86
2022-08-17T02:17:14.469Z,25.87
2022-08-17T02:19:41.894Z,25.86
2022-08-17T02:22:09.412Z,25.86
2022-08-17T02:24:59.901Z,25.82
2022-08-17T02:27:25.418Z,25.81
2022-08-17T02:29:52.535Z,25.82
2022-08-17T02:32:28.032Z,25.83
2022-08-17T02:34:59.935Z,25.84
2022-08-17T02:37:30.130Z,25.84
2022-08-17T02:39:58.751Z,25.83
2022-08-17T02:42:52.609Z,25.81
2022-08-17T02:45:24.420Z,25.82
2022-08-17T02:47:52.875Z,25.79
2022-08-17T02:50:24.323Z,25.77
2022-08-17T02:53:01.907Z,25.74
2022-08-17T02:55:38.362Z,25.71
2022-08-17T02:58:05.462Z,25.68
2022-08-17T03:00:41.004Z,25.69
2022-08-17T03:03:10.867Z,25.63
2022-08-17T03:05:38.771Z,25.60
2022-08-17T03:08:12.975Z,25.60
2022-08-17T03:10:41.646Z,25.57
2022-08-17T03:13:08.850Z,25.59
2022-08-17T03:15:36.630Z,25.57
2022-08-17T03:18:07.935Z,25.58
2022-08-17T03:20:46.672Z,25.56
2022-08-17T03:23:13.696Z,25.55
2022-08-17T03:25:44.168Z,25.54
2022-08-17T03:28:14.035Z,25.52
2022-08-17T03:30:42.718Z,25.53
2022-08-17T03:33:10.292Z,25.51
2022-08-17T03:35:40.683Z,25.48
2022-08-17T03:38:11.874Z,25.48
2022-08-17T03:40:58.957Z,25.46
2022-08-17T03:43:32.747Z,25.44
2022-08-17T03:46:28.865Z,25.43
2022-08-17T03:49:26.530Z,25.39
2022-08-17T03:52:15.428Z,25.36
2022-08-17T03:55:10.264Z,25.35
2022-08-17T03:57:37.593Z,25.31
2022-08-17T04:00:05.573Z,25.31
2022-08-17T04:02:39.084Z,25.29
2022-08-17T04:05:06.504Z,25.20
2022-08-17T04:07:33.543Z,25.11
2022-08-17T04:10:00.931Z,25.07
2022-08-17T04:12:31.335Z,25.06
2022-08-17T04:14:59.415Z,25.07
2022-08-17T04:17:29.305Z,25.07
2022-08-17T04:19:57.767Z,25.05
2022-08-17T04:22:32.917Z,25.04
2022-08-17T04:25:06.682Z,25.02
2022-08-17T04:27:34.434Z,25.03
2022-08-17T04:30:02.832Z,25.02
2022-08-17T04:33:03.493Z,25.01
2022-08-17T04:35:24.665Z,25.00
2022-08-17T04:37:52.662Z,24.99
2022-08-17T04:40:40.691Z,24.98
2022-08-17T04:43:16.462Z,24.97
2022-08-17T04:45:55.544Z,24.96
2022-08-17T04:48:37.573Z,24.95
2022-08-17T04:51:14.587Z,24.94
2022-08-17T04:53:53.954Z,24.93
2022-08-17T04:56:25.912Z,24.93
2022-08-17T04:58:58.496Z,24.94
2022-08-17T05:01:28.508Z,24.93
2022-08-17T05:03:59.174Z,24.95
2022-08-17T05:06:28.440Z,25.00
2022-08-17T05:08:57.686Z,25.03
2022-08-17T05:11:27.178Z,25.05
2022-08-17T05:13:56.799Z,25.06
2022-08-17T05:16:26.186Z,25.09
2022-08-17T05:18:53.647Z,25.11
2022-08-17T05:21:23.028Z,25.14
2022-08-17T05:23:55.002Z,25.15
2022-08-17T05:26:26.941Z,25.19
2022-08-17T05:29:00.367Z,25.21
2022-08-17T05:31:30.841Z,25.22
2022-08-17T05:33:58.246Z,25.24
2022-08-17T05:36:43.543Z,25.25
2022-08-17T05:39:16.867Z,25.28
2022-08-17T05:41:48.591Z,25.30
2022-08-17T05:44:17.289Z,25.32
2022-08-17T05:46:50.100Z,25.34
2022-08-17T05:49:27.554Z,25.35
2022-08-17T05:52:03.688Z,25.38
2022-08-17T05:55:01.705Z,25.40
2022-08-17T05:57:47.562Z,25.41
2022-08-17T06:00:30.606Z,25.45
2022-08-17T06:03:40.358Z,25.46
2022-08-17T06:06:38.209Z,25.49
2022-08-17T06:09:51.542Z,25.53
2022-08-17T06:12:37.474Z,25.57
2022-08-17T06:15:24.772Z,25.60
2022-08-17T06:18:02.181Z,25.62
2022-08-17T06:20:40.913Z,25.67
2022-08-17T06:23:18.296Z,25.71
2022-08-17T06:25:52.881Z,25.76
2022-08-17T06:28:30.556Z,25.80
2022-08-17T06:31:06.915Z,25.81
2022-08-17T06:33:38.109Z,25.84
2022-08-17T06:36:29.277Z,25.88
2022-08-17T06:39:39.735Z,25.92
2022-08-17T06:43:02.928Z,25.96
2022-08-17T06:45:20.560Z,26.01
2022-08-17T06:47:56.498Z,26.06
2022-08-17T06:50:54.955Z,26.09
2022-08-17T06:53:31.948Z,26.15
2022-08-17T06:56:06.490Z,26.21
2022-08-17T06:58:36.688Z,26.24
2022-08-17T07:01:23.172Z,26.29
2022-08-17T07:04:11.969Z,26.32
2022-08-17T07:06:58.409Z,26.38
2022-08-17T07:09:36.507Z,26.40
2022-08-17T07:12:22.142Z,26.46
2022-08-17T07:14:57.783Z,26.50
2022-08-17T07:17:48.009Z,26.55
2022-08-17T07:20:21.379Z,26.60
2022-08-17T07:22:59.871Z,26.65
2022-08-17T07:25:30.482Z,26.70
2022-08-17T07:28:02.598Z,26.74
2022-08-17T07:30:47.509Z,26.82
2022-08-17T07:33:30.147Z,26.86
2022-08-17T07:35:58.220Z,26.90
2022-08-17T07:38:35.546Z,26.96
2022-08-17T07:41:08.878Z,27.02
2022-08-17T07:43:42.052Z,27.08
2022-08-17T07:46:51.996Z,27.18
2022-08-17T07:49:31.155Z,27.19
2022-08-17T07:52:48.211Z,27.26
2022-08-17T07:54:50.919Z,27.32
2022-08-17T07:57:25.411Z,27.33
2022-08-17T08:00:02.200Z,27.39
2022-08-17T08:02:45.273Z,27.43
2022-08-17T08:05:48.845Z,27.45
2022-08-17T08:08:43.230Z,27.51
2022-08-17T08:11:15.767Z,27.55
2022-08-17T08:13:45.783Z,27.60
2022-08-17T08:16:24.719Z,27.63
2022-08-17T08:19:02.107Z,27.67
2022-08-17T08:21:52.134Z,27.66
2022-08-17T08:24:30.116Z,27.66
2022-08-17T08:27:29.807Z,27.67
2022-08-17T08:30:22.511Z,27.69
2022-08-17T08:33:20.192Z,27.71
2022-08-17T08:36:14.304Z,27.73
2022-08-17T08:39:09.934Z,27.77
2022-08-17T08:42:09.740Z,27.85
2022-08-17T08:45:07.551Z,27.94
2022-08-17T08:48:46.172Z,27.99
2022-08-17T08:51:08.576Z,27.98
2022-08-17T08:54:09.252Z,28.02
2022-08-17T08:57:19.789Z,28.06
2022-08-17T09:00:15.717Z,28.06
2022-08-17T09:03:36.727Z,28.09
2022-08-17T09:06:33.246Z,28.09
2022-08-17T09:09:27.942Z,28.10
2022-08-17T09:12:14.015Z,28.14
2022-08-17T09:14:57.689Z,28.16
2022-08-17T09:18:59.791Z,28.20
2022-08-17T09:21:14.863Z,28.19
2022-08-17T09:24:04.933Z,28.24
2022-08-17T09:26:49.311Z,28.29
2022-08-17T09:29:18.243Z,28.31
2022-08-17T09:31:58.687Z,28.36
2022-08-17T09:34:43.645Z,28.38
2022-08-17T09:38:02.136Z,28.44
2022-08-17T09:40:43.730Z,28.49
2022-08-17T09:43:27.273Z,28.53
2022-08-17T09:46:16.721Z,28.57
2022-08-17T09:49:15.201Z,28.60
2022-08-17T09:51:49.449Z,28.63
2022-08-17T09:54:39.206Z,28.68
2022-08-17T09:57:39.849Z,28.70
2022-08-17T10:00:27.488Z,28.65
2022-08-17T10:03:10.334Z,28.72
2022-08-17T10:05:56.894Z,28.77
2022-08-17T10:08:52.355Z,28.86
2022-08-17T10:11:52.846Z,28.93
2022-08-17T10:15:08.230Z,29.01
2022-08-17T10:18:13.856Z,29.07
2022-08-17T10:21:26.172Z,29.11
2022-08-17T10:24:26.708Z,29.15
2022-08-17T10:26:58.164Z,29.18
2022-08-17T10:29:48.614Z,29.24
2022-08-17T10:32:26.036Z,29.26
2022-08-17T10:35:03.882Z,29.19
2022-08-17T10:37:55.555Z,29.14
2022-08-17T10:40:36.447Z,29.20
2022-08-17T10:43:23.220Z,29.21
2022-08-17T10:46:31.132Z,29.28
2022-08-17T10:49:17.116Z,29.36
2022-08-17T10:51:54.537Z,29.46
2022-08-17T10:54:24.379Z,29.51
2022-08-17T10:56:57.293Z,29.56
2022-08-17T10:59:36.292Z,29.58
2022-08-17T11:02:13.178Z,29.63
2022-08-17T11:04:55.619Z,29.65
2022-08-17T11:07:43.942Z,29.68
2022-08-17T11:10:42.938Z,29.63
2022-08-17T11:13:39.975Z,29.66
2022-08-17T11:16:33.185Z,29.69
2022-08-17T11:19:12.267Z,29.72
2022-08-17T11:22:24.451Z,29.79
2022-08-17T11:24:54.139Z,29.81
2022-08-17T11:27:32.112Z,29.83
2022-08-17T11:30:07.335Z,29.85
2022-08-17T11:32:54.396Z,29.84
2022-08-17T11:35:21.847Z,29.84
2022-08-17T11:38:16.915Z,29.86
2022-08-17T11:41:27.481Z,29.89
2022-08-17T11:44:37.830Z,29.93
2022-08-17T11:47:39.399Z,29.98
2022-08-17T11:50:56.770Z,30.06
2022-08-17T11:53:39.288Z,30.11
2022-08-17T11:56:44.024Z,30.16
2022-08-17T11:59:36.642Z,30.24
2022-08-17T12:02:19.997Z,30.38
2022-08-17T12:05:04.958Z,30.48
2022-08-17T12:08:05.715Z,30.57
2022-08-17T12:10:39.878Z,30.61
2022-08-17T12:13:14.928Z,30.67
2022-08-17T12:15:49.741Z,30.72
2022-08-17T12:18:28.164Z,30.74
2022-08-17T12:21:26.395Z,30.77
2022-08-17T12:24:31.462Z,30.79
2022-08-17T12:27:02.569Z,30.79
2022-08-17T12:29:35.718Z,30.77
2022-08-17T12:32:14.501Z,30.79
2022-08-17T12:34:44.578Z,30.84
2022-08-17T12:37:26.255Z,30.83
2022-08-17T12:40:22.809Z,30.85
2022-08-17T12:42:59.121Z,30.88
2022-08-17T12:45:31.913Z,30.94
2022-08-17T12:48:13.246Z,30.96
2022-08-17T12:50:45.813Z,30.94
2022-08-17T12:53:21.011Z,30.92
2022-08-17T12:55:50.748Z,30.93
2022-08-17T12:58:29.664Z,30.88
2022-08-17T13:01:09.229Z,30.87
2022-08-17T13:03:41.949Z,30.88
2022-08-17T13:06:14.367Z,30.84
2022-08-17T13:08:48.298Z,30.80
2022-08-17T13:11:16.579Z,30.78
2022-08-17T13:13:54.811Z,30.76
2022-08-17T13:16:25.485Z,30.73
2022-08-17T13:19:15.114Z,30.72
2022-08-17T13:21:56.249Z,30.69
2022-08-17T13:24:38.143Z,30.66
2022-08-17T13:27:12.591Z,30.63
2022-08-17T13:29:53.645Z,30.63
2022-08-17T13:32:33.487Z,30.63
2022-08-17T13:35:13.811Z,30.61
2022-08-17T13:37:59.020Z,30.63
2022-08-17T13:40:49.994Z,30.65
2022-08-17T13:43:45.296Z,30.69
2022-08-17T13:46:22.848Z,30.72
2022-08-17T13:49:04.217Z,30.75
2022-08-17T13:51:36.673Z,30.78
2022-08-17T13:54:07.122Z,30.76
2022-08-17T13:56:51.662Z,30.74
2022-08-17T13:59:53.572Z,30.70
2022-08-17T14:02:21.819Z,30.66
2022-08-17T14:04:49.310Z,30.65
2022-08-17T14:07:18.187Z,30.63
2022-08-17T14:09:59.534Z,30.60
2022-08-17T14:12:29.917Z,30.55
2022-08-17T14:14:58.942Z,30.53
2022-08-17T14:17:28.979Z,30.48
2022-08-17T14:19:56.362Z,30.46
2022-08-17T14:22:30.703Z,30.45
2022-08-17T14:25:01.645Z,30.44
2022-08-17T14:27:33.489Z,30.46
2022-08-17T14:30:10.405Z,30.47
2022-08-17T14:32:41.557Z,30.47
2022-08-17T14:35:15.991Z,30.46
2022-08-17T14:37:45.666Z,30.45
2022-08-17T14:40:17.243Z,30.43
2022-08-17T14:42:45.920Z,30.40
2022-08-17T14:45:30.270Z,30.40
2022-08-17T14:48:05.712Z,30.41
2022-08-17T14:50:35.359Z,30.41
2022-08-17T14:53:06.049Z,30.43
2022-08-17T14:55:33.724Z,30.41
2022-08-17T14:58:00.814Z,30.42
2022-08-17T15:00:28.620Z,30.41
2022-08-17T15:02:58.854Z,30.40
2022-08-17T15:05:34.000Z,30.39
2022-08-17T15:08:03.268Z,30.39
2022-08-17T15:10:31.391Z,30.35
2022-08-17T15:12:59.371Z,30.33
2022-08-17T15:15:27.184Z,30.30
2022-08-17T15:17:55.089Z,30.27
2022-08-17T15:20:28.011Z,30.25
2022-08-17T15:22:57.457Z,30.21
2022-08-17T15:25:31.898Z,30.19
2022-08-17T15:28:00.532Z,30.16
2022-08-17T15:30:28.097Z,30.15
2022-08-17T15:33:00.668Z,30.14
2022-08-17T15:35:32.305Z,30.12
2022-08-17T15:38:09.895Z,30.11
2022-08-17T15:40:45.451Z,30.08
2022-08-17T15:43:17.297Z,30.05
2022-08-17T15:45:59.793Z,30.01
2022-08-17T15:48:41.426Z,29.99
2022-08-17T15:51:26.153Z,29.96
2022-08-17T15:54:18.846Z,29.95
2022-08-17T15:56:49.444Z,29.94
2022-08-17T15:59:16.395Z,29.95
2022-08-17T16:03:13.738Z,29.97
2022-08-17T16:04:31.802Z,29.95
2022-08-17T16:07:00.238Z,29.93
2022-08-17T16:09:28.084Z,29.89
2022-08-17T16:11:56.070Z,29.87
2022-08-17T16:14:33.520Z,29.78
2022-08-17T16:17:04.430Z,29.75
2022-08-17T16:19:33.469Z,29.73
2022-08-17T16:22:00.852Z,29.68
2022-08-17T16:24:28.068Z,29.69
2022-08-17T16:26:55.550Z,29.61
2022-08-17T16:29:23.611Z,29.53
2022-08-17T16:31:51.270Z,29.49
2022-08-17T16:34:19.054Z,29.43
2022-08-17T16:36:54.675Z,29.34
2022-08-17T16:39:29.253Z,29.23
2022-08-17T16:41:57.615Z,29.14
2022-08-17T16:44:33.160Z,29.08
2022-08-17T16:47:01.347Z,29.01
2022-08-17T16:49:36.832Z,28.97
2022-08-17T16:52:10.100Z,28.93
2022-08-17T16:54:52.450Z,28.87
2022-08-17T16:57:37.113Z,28.83
2022-08-17T17:00:29.028Z,28.80
2022-08-17T17:02:56.597Z,28.75
2022-08-17T17:06:09.378Z,28.70
2022-08-17T17:08:49.387Z,28.67
2022-08-17T17:11:27.859Z,28.62
2022-08-17T17:14:02.250Z,28.59
2022-08-17T17:16:32.084Z,28.54
2022-08-17T17:19:34.211Z,28.52
2022-08-17T17:22:15.272Z,28.46
2022-08-17T17:25:11.545Z,28.40
2022-08-17T17:27:47.582Z,28.37
2022-08-17T17:30:37.036Z,28.33
2022-08-17T17:33:10.460Z,28.32
2022-08-17T17:35:43.753Z,28.24
2022-08-17T17:38:23.674Z,28.25
2022-08-17T17:41:04.529Z,28.19
2022-08-17T17:43:39.606Z,28.15
2022-08-17T17:46:29.117Z,28.06
2022-08-17T17:48:58.334Z,28.06
2022-08-17T17:52:10.834Z,28.05
2022-08-17T17:55:05.304Z,27.97
2022-08-17T17:58:09.361Z,27.95
2022-08-17T18:00:42.166Z,27.90
2022-08-17T18:03:40.165Z,27.84
2022-08-17T18:07:13.265Z,27.82
2022-08-17T18:09:51.590Z,27.83
2022-08-17T18:12:38.343Z,27.82
2022-08-17T18:15:25.785Z,27.78
2022-08-17T18:18:16.004Z,27.73
2022-08-17T18:20:55.843Z,27.69
2022-08-17T18:23:27.976Z,27.65
2022-08-17T18:25:58.574Z,27.65
2022-08-17T18:28:34.590Z,27.61
2022-08-17T18:31:21.940Z,27.59
2022-08-17T18:33:54.303Z,27.54
2022-08-17T18:36:36.398Z,27.49
2022-08-17T18:39:27.882Z,27.45
2022-08-17T18:41:58.741Z,27.45
2022-08-17T18:44:42.532Z,27.47
2022-08-17T18:47:20.160Z,27.42
2022-08-17T18:49:57.994Z,27.44
2022-08-17T18:52:31.174Z,27.43
2022-08-17T18:55:13.800Z,27.38
2022-08-17T18:57:56.221Z,27.36
2022-08-17T19:00:40.468Z,27.37
2022-08-17T19:03:16.605Z,27.32
2022-08-17T19:05:54.538Z,27.26
2022-08-17T19:08:35.117Z,27.23
2022-08-17T19:11:28.254Z,27.21
2022-08-17T19:14:04.983Z,27.18
2022-08-17T19:17:01.069Z,27.16
2022-08-17T19:19:54.626Z,27.13
2022-08-17T19:22:43.772Z,27.06
2022-08-17T19:25:23.119Z,27.01
2022-08-17T19:28:21.844Z,26.99
2022-08-17T19:30:56.217Z,26.96
2022-08-17T19:33:24.230Z,26.94
2022-08-17T19:36:07.705Z,26.92
2022-08-17T19:39:22.625Z,26.92
2022-08-17T19:42:13.557Z,26.97
2022-08-17T19:44:56.383Z,27.02
2022-08-17T19:47:58.586Z,27.04
2022-08-17T19:50:42.519Z,27.02
2022-08-17T19:54:04.765Z,26.98
2022-08-17T19:56:55.813Z,26.97
2022-08-17T19:59:59.201Z,26.98
2022-08-17T20:02:42.475Z,26.99
2022-08-17T20:06:11.052Z,26.98
2022-08-17T20:08:49.155Z,26.95
2022-08-17T20:11:34.008Z,26.90
2022-08-17T20:14:13.489Z,26.87
2022-08-17T20:16:40.619Z,26.85
2022-08-17T20:19:38.837Z,26.82
2022-08-17T20:22:28.352Z,26.81
2022-08-17T20:25:11.548Z,26.82
2022-08-17T20:28:05.624Z,26.83
2022-08-17T20:30:42.613Z,26.81
2022-08-17T20:33:32.858Z,26.78
2022-08-17T20:36:11.346Z,26.77
2022-08-17T20:38:42.038Z,26.77
2022-08-17T20:41:24.667Z,26.76
2022-08-17T20:43:58.709Z,26.76
2022-08-17T20:46:28.513Z,26.78
2022-08-17T20:49:18.498Z,26.80
2022-08-17T20:52:09.772Z,26.79
2022-08-17T20:54:57.380Z,26.79
2022-08-17T20:57:33.568Z,26.81
2022-08-17T21:00:33.812Z,26.81
2022-08-17T21:03:22.526Z,26.81
2022-08-17T21:06:00.217Z,26.83
2022-08-17T21:08:35.805Z,26.84
2022-08-17T21:12:03.876Z,26.84
2022-08-17T21:14:58.712Z,26.83
2022-08-17T21:17:43.839Z,26.80
2022-08-17T21:20:52.322Z,26.77
2022-08-17T21:23:38.268Z,26.71
2022-08-17T21:26:30.731Z,26.70
2022-08-17T21:29:31.779Z,26.66
2022-08-17T21:31:59.568Z,26.64
2022-08-17T21:34:33.006Z,26.59
2022-08-17T21:37:23.639Z,26.57
2022-08-17T21:40:19.310Z,26.56
2022-08-17T21:42:53.902Z,26.52
2022-08-17T21:45:32.500Z,26.51
2022-08-17T21:48:16.185Z,26.46
2022-08-17T21:50:57.563Z,26.44
2022-08-17T21:53:37.426Z,26.41
2022-08-17T21:56:06.448Z,26.39
2022-08-17T21:58:39.983Z,26.36
2022-08-17T22:01:39.756Z,26.33
2022-08-17T22:04:11.516Z,26.32
2022-08-17T22:06:52.716Z,26.29
2022-08-17T22:09:48.649Z,26.25
2022-08-17T22:12:24.286Z,26.22
2022-08-17T22:15:04.676Z,26.18
2022-08-17T22:17:41.246Z,26.11
2022-08-17T22:20:16.333Z,26.06
2022-08-17T22:23:08.340Z,26.01
2022-08-17T22:25:40.948Z,25.97
2022-08-17T22:28:11.977Z,25.92
2022-08-17T22:30:44.133Z,25.88
2022-08-17T22:33:33.338Z,25.81
2022-08-17T22:36:42.111Z,25.78
2022-08-17T22:39:09.009Z,25.73
2022-08-17T22:41:52.552Z,25.71
2022-08-17T22:44:19.561Z,25.72
2022-08-17T22:47:11.340Z,25.72
2022-08-17T22:49:53.931Z,25.71
2022-08-17T22:53:00.624Z,25.73
2022-08-17T22:55:52.466Z,25.72
2022-08-17T22:58:42.648Z,25.71
2022-08-17T23:01:26.324Z,25.70
2022-08-17T23:03:58.079Z,25.68
2022-08-17T23:06:25.437Z,25.64
2022-08-17T23:08:54.962Z,25.57
2022-08-17T23:11:36.646Z,25.56
2022-08-17T23:14:15.841Z,25.55
2022-08-17T23:16:43.262Z,25.56
2022-08-17T23:19:17.717Z,25.54
2022-08-17T23:21:46.008Z,25.51
2022-08-17T23:24:23.837Z,25.48
2022-08-17T23:26:52.586Z,25.48
2022-08-17T23:29:21.771Z,25.48
2022-08-17T23:31:51.383Z,25.49
2022-08-17T23:34:19.733Z,25.48
2022-08-17T23:36:52.452Z,25.47
2022-08-17T23:39:24.664Z,25.45
2022-08-17T23:42:01.297Z,25.50
2022-08-17T23:44:29.143Z,25.41
2022-08-17T23:46:57.851Z,25.37
2022-08-17T23:49:25.664Z,25.34
2022-08-17T23:51:56.858Z,25.37
2022-08-17T23:54:41.692Z,25.36
2022-08-17T23:57:11.841Z,25.40
2022-08-17T23:59:41.012Z,25.39
